Sao Pedro da Aldeia, Brazil
Current Conditions -  °F | °C
As of 3:00 PM on Thursday 18 Dec 2014 (Local Time) from SBES Reporting Station
Clear Clear  
Wind Chill: 90°   Ceiling: Unl
Heat Index: 93°   Visibility: 6mi
Dew Point: 68°   Wind: 17mph
Humidity: 49%   Direction: 70°ENE
Pressure: 29.74"   Gusts: NA
Location:  22.83°S, 42.11°W
Report Text: SBES 181700Z 07015KT CAVOK 32/20 Q1007
Loading
Personal Weather Stations






























Interactive Weather Map New forecast layout! Learn more

10-Day Weather Forecast

Advertisements
Track Severe Weather on mobile